Time;durP1;ratioP1;P1;durP2;ratioP2;P2;SDS_P1;SDS_P2;PMS_P1;PMS_P2;Temp;Humidity;BMP_temperature;BMP_pressure;BME280_temperature;BME280_humidity;BME280_pressure;Samples;Min_cycle;Max_cycle;Signal;HPM_P1;HPM_P2
2023/01/27 00:02:08;;;;;;;20.67;9.38;;;;;;;;;;5027907;28;20069;-73
2023/01/27 00:04:37;;;;;;;22.83;8.75;;;;;;;;;;5017205;28;20094;-74
2023/01/27 00:07:04;;;;;;;26.70;10.60;;;;;;;;;;5013789;28;20052;-74
2023/01/27 00:09:31;;;;;;;29.65;10.63;;;;;;;;;;5013897;28;20096;-74
2023/01/27 00:14:39;;;;;;;25.17;10.00;;;;;;;;;;4980765;28;20042;-72
2023/01/27 00:17:07;;;;;;;29.80;10.00;;;;;;;;;;5013702;28;20512;-71
2023/01/27 00:19:48;;;;;;;29.15;9.43;;;;;;;;;;5013432;28;20081;-71
2023/01/27 00:25:02;;;;;;;18.55;8.35;;;;;;;;;;5013254;28;20185;-73
2023/01/27 00:27:33;;;;;;;21.33;8.88;;;;;;;;;;5013819;28;20049;-73
2023/01/27 00:29:59;;;;;;;;;;;;;;;;;;5014138;28;20081;-73
2023/01/27 00:35:15;;;;;;;23.33;8.15;;;;;;;;;;5011687;28;20057;-74
2023/01/27 00:37:42;;;;;;;23.25;7.53;;;;;;;;;;5013519;28;20144;-74
2023/01/27 00:40:10;;;;;;;21.33;8.55;;;;;;;;;;5013379;28;20068;-72
2023/01/27 00:42:38;;;;;;;17.27;7.50;;;;;;;;;;5013631;28;20049;-74
2023/01/27 00:47:52;;;;;;;21.27;8.07;;;;;;;;;;5014024;28;20424;-71
2023/01/27 00:50:19;;;;;;;21.58;8.23;;;;;;;;;;5013121;28;20050;-73
2023/01/27 00:52:52;;;;;;;18.75;7.93;;;;;;;;;;5013002;28;20084;-72
2023/01/27 00:55:19;;;;;;;23.35;7.03;;;;;;;;;;5013023;28;20081;-73
2023/01/27 00:57:48;;;;;;;22.08;8.60;;;;;;;;;;5012642;28;20045;-72
2023/01/27 01:00:15;;;;;;;19.27;8.40;;;;;;;;;;5012966;28;20073;-73
2023/01/27 01:02:42;;;;;;;19.83;7.68;;;;;;;;;;5013173;28;20077;-73
2023/01/27 01:08:53;;;;;;;20.42;7.10;;;;;;;;;;5003517;28;20046;-74
2023/01/27 01:11:31;;;;;;;;;;;;;;;;;;4995859;28;20058;-73
2023/01/27 01:14:00;;;;;;;21.05;8.05;;;;;;;;;;5003652;28;19927;-72
2023/01/27 01:16:27;;;;;;;20.50;7.72;;;;;;;;;;5012790;28;20133;-72
2023/01/27 01:18:53;;;;;;;21.00;8.02;;;;;;;;;;5012466;28;20050;-73
2023/01/27 01:21:20;;;;;;;19.10;6.70;;;;;;;;;;5012269;28;20052;-72
2023/01/27 01:23:48;;;;;;;19.92;7.13;;;;;;;;;;5012536;28;20074;-73
2023/01/27 01:26:18;;;;;;;19.52;6.45;;;;;;;;;;5012480;28;20056;-74
2023/01/27 01:28:46;;;;;;;18.02;6.43;;;;;;;;;;5012001;28;20484;-74
2023/01/27 01:31:16;;;;;;;18.65;7.38;;;;;;;;;;5012645;28;20128;-74
2023/01/27 01:33:43;;;;;;;19.25;7.43;;;;;;;;;;5012036;28;20073;-74
2023/01/27 01:36:11;;;;;;;17.10;6.97;;;;;;;;;;5011958;28;20065;-73
2023/01/27 01:38:38;;;;;;;19.92;7.90;;;;;;;;;;5011863;28;20081;-74
2023/01/27 01:41:05;;;;;;;17.20;6.85;;;;;;;;;;5011907;28;20081;-73
2023/01/27 01:43:34;;;;;;;18.70;7.13;;;;;;;;;;5012318;28;20050;-73
2023/01/27 01:46:02;;;;;;;17.65;7.38;;;;;;;;;;5012950;28;20064;-73
2023/01/27 01:48:37;;;;;;;16.92;6.20;;;;;;;;;;5012807;28;20054;-74
2023/01/27 01:51:09;;;;;;;12.38;5.10;;;;;;;;;;5013810;28;20088;-73
2023/01/27 01:53:42;;;;;;;15.02;6.65;;;;;;;;;;5016186;28;20077;-73
2023/01/27 01:56:15;;;;;;;18.60;6.55;;;;;;;;;;5018183;28;20054;-73
2023/01/27 01:58:45;;;;;;;13.63;4.88;;;;;;;;;;5012909;28;20137;-73
2023/01/27 02:01:17;;;;;;;14.75;6.25;;;;;;;;;;5011999;28;20132;-73
2023/01/27 02:03:49;;;;;;;14.50;5.75;;;;;;;;;;5012605;28;20420;-73
2023/01/27 02:06:16;;;;;;;16.85;6.95;;;;;;;;;;4997574;28;20501;-73
2023/01/27 02:08:49;;;;;;;18.23;6.35;;;;;;;;;;5005311;28;20053;-74
2023/01/27 02:11:16;;;;;;;16.55;6.13;;;;;;;;;;5020986;22;20046;-79
2023/01/27 02:13:45;;;;;;;13.13;6.35;;;;;;;;;;5004065;28;20053;-82
2023/01/27 02:16:12;;;;;;;16.73;6.80;;;;;;;;;;5002914;28;20080;-80
2023/01/27 02:18:41;;;;;;;14.90;5.70;;;;;;;;;;5000410;28;20129;-81
2023/01/27 02:21:09;;;;;;;17.05;6.25;;;;;;;;;;5012181;28;20066;-82
2023/01/27 02:24:00;;;;;;;20.13;7.28;;;;;;;;;;5010780;28;20046;-81
2023/01/27 02:26:32;;;;;;;18.92;6.95;;;;;;;;;;5008010;28;20469;-81
2023/01/27 02:29:02;;;;;;;19.02;6.32;;;;;;;;;;5012470;28;20050;-79
2023/01/27 02:31:29;;;;;;;18.02;6.28;;;;;;;;;;5004546;28;20074;-82
2023/01/27 02:33:59;;;;;;;17.02;6.60;;;;;;;;;;5005578;28;20042;-80
2023/01/27 02:36:30;;;;;;;18.30;6.63;;;;;;;;;;5007249;28;20046;-80
2023/01/27 02:38:58;;;;;;;21.08;7.60;;;;;;;;;;5001279;28;20081;-80
2023/01/27 02:41:27;;;;;;;20.55;6.43;;;;;;;;;;5012457;28;20070;-79
2023/01/27 02:44:00;;;;;;;17.92;6.85;;;;;;;;;;5013745;28;20046;-79
2023/01/27 02:46:29;;;;;;;16.45;6.20;;;;;;;;;;5013101;28;20046;-79
2023/01/27 02:48:55;;;;;;;20.70;7.70;;;;;;;;;;5016293;28;20069;-79
2023/01/27 02:51:22;;;;;;;18.83;7.72;;;;;;;;;;5017098;28;20034;-79
2023/01/27 02:53:49;;;;;;;20.27;7.20;;;;;;;;;;5014191;28;20077;-81
2023/01/27 02:56:15;;;;;;;21.15;8.02;;;;;;;;;;5014106;28;20077;-77
2023/01/27 02:58:42;;;;;;;22.60;7.63;;;;;;;;;;5010897;28;20061;-80
2023/01/27 03:01:10;;;;;;;21.35;8.00;;;;;;;;;;5007343;28;20062;-81
2023/01/27 03:03:42;;;;;;;27.40;9.00;;;;;;;;;;5007724;28;20073;-80
2023/01/27 03:06:09;;;;;;;22.75;8.57;;;;;;;;;;5008294;28;20054;-82
2023/01/27 03:08:35;;;;;;;21.55;8.13;;;;;;;;;;5005045;28;20102;-80
2023/01/27 03:11:06;;;;;;;22.40;7.70;;;;;;;;;;5006044;28;20046;-80
2023/01/27 03:13:33;;;;;;;;;;;;;;;;;;5007241;28;20109;-80
2023/01/27 03:18:48;;;;;;;25.35;8.65;;;;;;;;;;5010935;28;20061;-80
2023/01/27 03:21:16;;;;;;;20.52;7.20;;;;;;;;;;5003348;28;20042;-79
2023/01/27 03:23:44;;;;;;;23.70;8.65;;;;;;;;;;5018337;28;20052;-79
2023/01/27 03:26:11;;;;;;;25.40;8.90;;;;;;;;;;5017973;28;20054;-80
2023/01/27 03:29:53;;;;;;;21.13;8.07;;;;;;;;;;5017754;28;20050;-80
2023/01/27 03:31:36;;;;;;;23.25;8.20;;;;;;;;;;5014247;28;20133;-80
2023/01/27 03:34:04;;;;;;;26.55;8.73;;;;;;;;;;5011716;28;20081;-79
2023/01/27 03:47:28;;;;;;;22.60;9.23;;;;;;;;;;5001131;28;20061;-80
2023/01/27 03:49:56;;;;;;;21.50;8.50;;;;;;;;;;5000291;28;20060;-80
2023/01/27 03:52:23;;;;;;;23.92;8.30;;;;;;;;;;4999344;28;20064;-80
2023/01/27 03:54:49;;;;;;;22.95;8.35;;;;;;;;;;5000481;28;20043;-82
2023/01/27 03:57:16;;;;;;;22.73;8.27;;;;;;;;;;4999923;28;20062;-80
2023/01/27 03:59:43;;;;;;;21.55;8.15;;;;;;;;;;5000128;28;20510;-81
2023/01/27 04:07:39;;;;;;;22.80;8.60;;;;;;;;;;4997839;28;20054;-81
2023/01/27 04:10:06;;;;;;;26.45;9.60;;;;;;;;;;4998480;28;20051;-80
2023/01/27 04:12:31;;;;;;;22.35;8.60;;;;;;;;;;4997930;28;20052;-81
2023/01/27 04:14:58;;;;;;;22.42;9.20;;;;;;;;;;5006592;28;20046;-80
2023/01/27 04:17:25;;;;;;;21.65;9.68;;;;;;;;;;5013178;28;20034;-80
2023/01/27 04:19:52;;;;;;;24.35;8.93;;;;;;;;;;5001764;28;20129;-80
2023/01/27 04:22:18;;;;;;;22.60;9.15;;;;;;;;;;4995174;28;20050;-79
2023/01/27 04:24:46;;;;;;;28.50;9.60;;;;;;;;;;4996369;28;20046;-79
2023/01/27 04:27:15;;;;;;;21.65;8.55;;;;;;;;;;4999802;28;20141;-79
2023/01/27 04:29:42;;;;;;;23.30;9.00;;;;;;;;;;4999189;28;20058;-79
2023/01/27 04:32:11;;;;;;;24.88;8.65;;;;;;;;;;4999410;28;20077;-80
2023/01/27 04:34:38;;;;;;;28.10;9.40;;;;;;;;;;4999747;28;20106;-79
2023/01/27 04:37:06;;;;;;;25.75;9.93;;;;;;;;;;5000055;28;20050;-79
2023/01/27 04:39:34;;;;;;;28.08;10.18;;;;;;;;;;5000286;28;20413;-80
2023/01/27 04:42:02;;;;;;;28.58;9.45;;;;;;;;;;4998780;28;20050;-79
2023/01/27 04:44:28;;;;;;;23.30;8.95;;;;;;;;;;4999916;28;20524;-79
2023/01/27 04:46:55;;;;;;;27.30;9.73;;;;;;;;;;4999256;28;20121;-79
2023/01/27 04:49:22;;;;;;;21.48;8.93;;;;;;;;;;4999259;28;20137;-79
2023/01/27 04:51:48;;;;;;;20.38;8.20;;;;;;;;;;4998122;28;20138;-80
2023/01/27 04:54:15;;;;;;;27.95;9.32;;;;;;;;;;4998774;28;20049;-79
2023/01/27 04:56:54;;;;;;;26.08;9.25;;;;;;;;;;4999058;28;20074;-78
2023/01/27 04:59:22;;;;;;;24.95;8.57;;;;;;;;;;4998856;28;20102;-78
2023/01/27 05:01:49;;;;;;;23.20;9.45;;;;;;;;;;4998173;28;20042;-79
2023/01/27 05:04:15;;;;;;;24.23;9.05;;;;;;;;;;4998819;28;20058;-80
2023/01/27 05:06:42;;;;;;;26.58;10.00;;;;;;;;;;4993866;28;20065;-79
2023/01/27 05:09:08;;;;;;;22.98;10.13;;;;;;;;;;4998390;28;20062;-80
2023/01/27 05:11:35;;;;;;;24.13;8.77;;;;;;;;;;4996746;28;20687;-79
2023/01/27 05:14:02;;;;;;;23.95;9.63;;;;;;;;;;4997717;28;20129;-80
2023/01/27 05:16:30;;;;;;;24.52;9.77;;;;;;;;;;4998326;28;20132;-80
2023/01/27 05:18:56;;;;;;;21.13;9.55;;;;;;;;;;4998524;28;20133;-79
2023/01/27 05:21:27;;;;;;;23.25;8.77;;;;;;;;;;4997695;28;20046;-79
2023/01/27 05:23:53;;;;;;;29.00;10.15;;;;;;;;;;4995640;28;20145;-79
2023/01/27 05:26:21;;;;;;;22.83;9.80;;;;;;;;;;4992449;28;20047;-79
2023/01/27 05:28:49;;;;;;;23.40;9.77;;;;;;;;;;4996289;28;20050;-79
2023/01/27 05:31:18;;;;;;;25.35;8.85;;;;;;;;;;4997535;28;20081;-79
2023/01/27 05:33:48;;;;;;;23.77;9.20;;;;;;;;;;4999419;28;20046;-79
2023/01/27 05:36:16;;;;;;;27.95;10.05;;;;;;;;;;4999238;28;20422;-79
2023/01/27 05:38:43;;;;;;;29.70;9.77;;;;;;;;;;4996766;28;20056;-79
2023/01/27 05:41:12;;;;;;;24.85;8.80;;;;;;;;;;4995902;28;20046;-79
2023/01/27 05:43:40;;;;;;;25.65;9.65;;;;;;;;;;4995429;28;20497;-79
2023/01/27 05:46:09;;;;;;;28.58;11.02;;;;;;;;;;4996530;28;20054;-80
2023/01/27 05:48:36;;;;;;;26.23;8.70;;;;;;;;;;4996085;28;20046;-79
2023/01/27 05:51:05;;;;;;;27.67;10.23;;;;;;;;;;4996096;28;20054;-79
2023/01/27 05:53:32;;;;;;;30.52;10.32;;;;;;;;;;4996425;28;20049;-80
2023/01/27 05:55:59;;;;;;;30.33;10.15;;;;;;;;;;4996926;28;20134;-79
2023/01/27 05:58:26;;;;;;;28.67;10.05;;;;;;;;;;4997036;28;20046;-79
2023/01/27 06:00:55;;;;;;;29.38;9.95;;;;;;;;;;5013089;28;20118;-79
2023/01/27 06:03:21;;;;;;;32.33;10.55;;;;;;;;;;5009773;28;20053;-79
2023/01/27 06:05:56;;;;;;;32.60;11.90;;;;;;;;;;4999347;28;20137;-79
2023/01/27 06:08:25;;;;;;;31.67;10.85;;;;;;;;;;4998937;28;20050;-78
2023/01/27 06:10:53;;;;;;;32.15;9.48;;;;;;;;;;4999459;28;20054;-79
2023/01/27 06:13:22;;;;;;;35.63;14.57;;;;;;;;;;4998820;28;20042;-80
2023/01/27 06:15:50;;;;;;;34.92;11.63;;;;;;;;;;4998799;28;20049;-78
2023/01/27 06:18:18;;;;;;;34.28;10.90;;;;;;;;;;4999479;28;20053;-79
2023/01/27 06:20:46;;;;;;;27.90;9.98;;;;;;;;;;4998270;28;20051;-79
2023/01/27 06:23:14;;;;;;;35.78;11.57;;;;;;;;;;4998145;28;20125;-79
2023/01/27 06:25:44;;;;;;;31.30;11.80;;;;;;;;;;4998895;28;20378;-80
2023/01/27 06:28:11;;;;;;;33.97;13.02;;;;;;;;;;4999265;28;20114;-79
2023/01/27 06:30:39;;;;;;;33.38;12.27;;;;;;;;;;4998460;28;20137;-78
2023/01/27 06:33:07;;;;;;;31.88;11.65;;;;;;;;;;4998403;28;20077;-82
2023/01/27 06:35:35;;;;;;;32.80;11.40;;;;;;;;;;4997570;28;20053;-78
2023/01/27 06:38:03;;;;;;;32.75;12.00;;;;;;;;;;4998067;28;20053;-79
2023/01/27 06:40:31;;;;;;;35.00;12.02;;;;;;;;;;4997320;28;20051;-78
2023/01/27 06:42:59;;;;;;;34.30;12.60;;;;;;;;;;4996944;28;20413;-78
2023/01/27 06:45:27;;;;;;;35.38;11.20;;;;;;;;;;4997227;28;20106;-79
2023/01/27 06:47:58;;;;;;;33.80;12.73;;;;;;;;;;4996991;28;20515;-79
2023/01/27 06:50:25;;;;;;;;;;;;;;;;;;4997357;28;20114;-79
2023/01/27 06:52:52;;;;;;;31.88;10.45;;;;;;;;;;4997057;28;19922;-80
2023/01/27 06:55:19;;;;;;;40.25;11.90;;;;;;;;;;4996644;28;20070;-78
2023/01/27 06:57:47;;;;;;;36.17;12.55;;;;;;;;;;4998811;28;20056;-79
2023/01/27 07:00:16;;;;;;;36.83;12.52;;;;;;;;;;4999128;28;20050;-79
2023/01/27 07:02:43;;;;;;;42.60;13.13;;;;;;;;;;4999747;28;20106;-78
2023/01/27 07:05:10;;;;;;;35.88;12.77;;;;;;;;;;5001679;28;20042;-79
2023/01/27 07:07:37;;;;;;;37.15;12.55;;;;;;;;;;4997975;28;20581;-80
2023/01/27 07:10:05;;;;;;;35.58;11.90;;;;;;;;;;4989366;28;20064;-78
2023/01/27 07:12:34;;;;;;;33.35;12.45;;;;;;;;;;5000768;28;20125;-82
2023/01/27 07:15:01;;;;;;;33.42;11.73;;;;;;;;;;5000795;28;20050;-80
2023/01/27 07:17:29;;;;;;;36.13;12.70;;;;;;;;;;5001488;28;20104;-80
2023/01/27 07:19:55;;;;;;;40.95;14.63;;;;;;;;;;5001757;28;20054;-80
2023/01/27 07:22:22;;;;;;;37.25;14.20;;;;;;;;;;5002135;28;20109;-81
2023/01/27 07:24:49;;;;;;;38.40;12.20;;;;;;;;;;5002596;28;20403;-80
2023/01/27 07:27:15;;;;;;;40.08;13.38;;;;;;;;;;5002963;28;20077;-80
2023/01/27 07:29:42;;;;;;;44.75;14.25;;;;;;;;;;5002162;28;20126;-81
2023/01/27 07:32:09;;;;;;;41.65;13.70;;;;;;;;;;5000627;28;20050;-81
2023/01/27 07:34:37;;;;;;;36.83;12.02;;;;;;;;;;4999996;28;20125;-80
2023/01/27 07:37:04;;;;;;;38.83;12.38;;;;;;;;;;5000639;28;20102;-80
2023/01/27 07:39:32;;;;;;;36.03;12.70;;;;;;;;;;5001160;28;20081;-80
2023/01/27 07:42:00;;;;;;;37.13;12.13;;;;;;;;;;5000443;28;20391;-80
2023/01/27 07:44:27;;;;;;;38.22;11.75;;;;;;;;;;5000721;28;20052;-81
2023/01/27 07:46:54;;;;;;;34.72;12.00;;;;;;;;;;5001661;28;20097;-80
2023/01/27 07:49:20;;;;;;;39.45;13.40;;;;;;;;;;4999344;28;20307;-80
2023/01/27 07:51:48;;;;;;;41.78;12.98;;;;;;;;;;5000145;28;20088;-80
2023/01/27 07:54:15;;;;;;;38.33;11.40;;;;;;;;;;5000034;28;20465;-81
2023/01/27 07:56:42;;;;;;;36.97;11.48;;;;;;;;;;4998147;28;20134;-80
2023/01/27 07:59:10;;;;;;;33.88;11.15;;;;;;;;;;4998481;28;20050;-78
2023/01/27 08:01:38;;;;;;;41.13;12.00;;;;;;;;;;5000167;28;20082;-79
2023/01/27 08:04:04;;;;;;;34.40;11.75;;;;;;;;;;5001784;28;20050;-80
2023/01/27 08:06:32;;;;;;;36.20;11.55;;;;;;;;;;5001372;28;20050;-81
2023/01/27 08:09:00;;;;;;;29.98;10.43;;;;;;;;;;4999932;28;20045;-79
2023/01/27 08:11:26;;;;;;;30.58;10.45;;;;;;;;;;5000695;28;20054;-80
2023/01/27 08:13:53;;;;;;;33.08;10.70;;;;;;;;;;5002175;28;20077;-80
2023/01/27 08:16:20;;;;;;;33.38;11.38;;;;;;;;;;4999358;28;22031;-80
2023/01/27 08:18:46;;;;;;;32.80;10.57;;;;;;;;;;4999063;28;20137;-80
2023/01/27 08:21:13;;;;;;;29.95;11.38;;;;;;;;;;5000797;28;20077;-80
2023/01/27 08:23:40;;;;;;;30.80;10.05;;;;;;;;;;5000276;28;20062;-80
2023/01/27 08:26:08;;;;;;;36.05;10.85;;;;;;;;;;4999897;28;20077;-80
2023/01/27 08:28:36;;;;;;;33.13;11.25;;;;;;;;;;4999935;28;20494;-80
2023/01/27 08:31:07;;;;;;;35.13;11.48;;;;;;;;;;4999651;28;20038;-81
2023/01/27 08:33:34;;;;;;;35.08;10.75;;;;;;;;;;4999640;28;20088;-81
2023/01/27 08:36:06;;;;;;;30.73;10.55;;;;;;;;;;5000872;28;20446;-81
2023/01/27 08:38:34;;;;;;;31.75;9.70;;;;;;;;;;5018112;28;20035;-80
2023/01/27 08:41:04;;;;;;;25.70;9.57;;;;;;;;;;5016918;28;20035;-81
2023/01/27 08:43:32;;;;;;;31.05;9.77;;;;;;;;;;5019812;28;20042;-80
2023/01/27 08:45:59;;;;;;;35.28;10.35;;;;;;;;;;5012024;28;20110;-81
2023/01/27 08:48:27;;;;;;;26.15;9.63;;;;;;;;;;4998771;28;20129;-81
2023/01/27 08:50:53;;;;;;;28.42;8.82;;;;;;;;;;5000458;28;20106;-81
2023/01/27 08:53:20;;;;;;;25.40;9.35;;;;;;;;;;5005880;28;20109;-81
2023/01/27 08:55:47;;;;;;;25.48;9.13;;;;;;;;;;5016086;28;20052;-81
2023/01/27 08:58:14;;;;;;;28.15;9.95;;;;;;;;;;5016544;28;20046;-82
2023/01/27 09:00:42;;;;;;;25.92;9.27;;;;;;;;;;5017066;28;20119;-82
2023/01/27 09:03:08;;;;;;;28.65;9.10;;;;;;;;;;5014664;28;20082;-81
2023/01/27 09:05:36;;;;;;;26.48;9.30;;;;;;;;;;5011202;28;20053;-80
2023/01/27 09:08:03;;;;;;;22.90;8.38;;;;;;;;;;5006221;28;20623;-80
2023/01/27 09:10:30;;;;;;;29.33;10.52;;;;;;;;;;5016732;28;20060;-81
2023/01/27 09:12:57;;;;;;;27.73;9.63;;;;;;;;;;5016614;28;20065;-80
2023/01/27 09:15:24;;;;;;;28.60;9.85;;;;;;;;;;5016674;28;20046;-81
2023/01/27 09:17:52;;;;;;;29.92;9.63;;;;;;;;;;5016655;28;20041;-81
2023/01/27 09:20:19;;;;;;;26.05;8.73;;;;;;;;;;4998714;28;20050;-81
2023/01/27 09:22:46;;;;;;;24.42;9.07;;;;;;;;;;4997842;28;20046;-81
2023/01/27 09:25:14;;;;;;;27.63;9.50;;;;;;;;;;4999134;28;20065;-80
2023/01/27 09:27:41;;;;;;;28.80;9.77;;;;;;;;;;4998854;28;20077;-81
2023/01/27 09:30:10;;;;;;;30.35;10.00;;;;;;;;;;4998679;28;20058;-81
2023/01/27 09:32:37;;;;;;;22.50;8.88;;;;;;;;;;4998933;28;20120;-81
2023/01/27 09:35:06;;;;;;;24.92;8.65;;;;;;;;;;4996527;28;20129;-80
2023/01/27 09:37:38;;;;;;;23.65;9.32;;;;;;;;;;4991587;28;20050;-81
2023/01/27 09:40:13;;;;;;;25.20;8.20;;;;;;;;;;4995321;28;20101;-80
2023/01/27 09:43:09;;;;;;;26.95;8.25;;;;;;;;;;4978405;28;20047;-82
2023/01/27 09:45:51;;;;;;;23.85;8.65;;;;;;;;;;4981520;28;20117;-83
2023/01/27 09:48:33;;;;;;;23.63;8.68;;;;;;;;;;4996643;28;20052;-81
2023/01/27 09:51:09;;;;;;;27.75;9.38;;;;;;;;;;4990660;28;20074;-80
2023/01/27 09:54:00;;;;;;;28.15;9.43;;;;;;;;;;4997551;28;20130;-80
2023/01/27 09:56:46;;;;;;;28.73;10.77;;;;;;;;;;4997402;28;20141;-79
2023/01/27 09:59:25;;;;;;;26.63;9.48;;;;;;;;;;4997810;28;20077;-85
2023/01/27 10:02:01;;;;;;;30.35;11.55;;;;;;;;;;4996055;28;20046;-81
2023/01/27 10:04:54;;;;;;;32.40;10.65;;;;;;;;;;4996851;28;20070;-84
2023/01/27 10:07:43;;;;;;;24.38;9.45;;;;;;;;;;4988239;28;20046;-79
2023/01/27 10:10:18;;;;;;;26.52;9.57;;;;;;;;;;4993893;28;20054;-79
2023/01/27 10:13:01;;;;;;;26.92;9.13;;;;;;;;;;4996593;28;20046;-79
2023/01/27 10:15:40;;;;;;;28.08;10.20;;;;;;;;;;4993749;28;20166;-78
2023/01/27 10:18:22;;;;;;;29.23;10.55;;;;;;;;;;4976532;28;20110;-79
2023/01/27 10:20:59;;;;;;;30.92;12.60;;;;;;;;;;4997502;28;20092;-79
2023/01/27 10:23:39;;;;;;;32.33;11.10;;;;;;;;;;4996296;28;20053;-79
2023/01/27 10:26:18;;;;;;;31.67;13.33;;;;;;;;;;4998128;28;20201;-79
2023/01/27 10:28:50;;;;;;;48.53;17.58;;;;;;;;;;5003721;28;20062;-79
2023/01/27 10:31:25;;;;;;;35.65;14.20;;;;;;;;;;4998575;28;20099;-80
2023/01/27 10:33:53;;;;;;;28.23;11.02;;;;;;;;;;5002544;28;20101;-80
2023/01/27 10:36:26;;;;;;;28.35;11.10;;;;;;;;;;5007848;28;20070;-79
2023/01/27 10:39:08;;;;;;;31.80;11.73;;;;;;;;;;4998741;28;20054;-80
2023/01/27 10:41:43;;;;;;;30.75;12.43;;;;;;;;;;4997693;28;20046;-80
2023/01/27 10:44:24;;;;;;;28.05;10.73;;;;;;;;;;4998866;28;20068;-80
2023/01/27 10:47:01;;;;;;;24.15;10.18;;;;;;;;;;5000021;28;20713;-82
2023/01/27 10:49:32;;;;;;;31.27;11.25;;;;;;;;;;4999791;28;20057;-80
2023/01/27 10:52:03;;;;;;;30.55;10.90;;;;;;;;;;4999035;28;20050;-80
2023/01/27 10:54:36;;;;;;;29.40;10.63;;;;;;;;;;4999187;28;20082;-80
2023/01/27 10:57:08;;;;;;;24.17;9.90;;;;;;;;;;5002464;28;20098;-80
2023/01/27 10:59:40;;;;;;;28.55;11.55;;;;;;;;;;5000883;28;20553;-80
2023/01/27 11:02:15;;;;;;;24.42;9.30;;;;;;;;;;4999421;28;20250;-80
2023/01/27 11:04:46;;;;;;;28.88;10.27;;;;;;;;;;4999430;28;20134;-80
2023/01/27 11:07:16;;;;;;;23.23;8.95;;;;;;;;;;5009151;28;20089;-79
2023/01/27 11:09:49;;;;;;;32.50;11.25;;;;;;;;;;5012911;28;20050;-79
2023/01/27 11:12:16;;;;;;;27.23;10.10;;;;;;;;;;5012707;28;20038;-80
2023/01/27 11:14:46;;;;;;;27.42;11.48;;;;;;;;;;5013071;28;20058;-79
2023/01/27 11:17:17;;;;;;;23.88;9.43;;;;;;;;;;5012562;28;20039;-80
2023/01/27 11:19:45;;;;;;;;;;;;;;;;;;5014617;28;20060;-81
2023/01/27 11:22:21;;;;;;;25.90;9.85;;;;;;;;;;5013963;28;19921;-79
2023/01/27 11:24:58;;;;;;;30.45;11.18;;;;;;;;;;5010049;28;20077;-80
2023/01/27 11:27:36;;;;;;;32.25;11.77;;;;;;;;;;5004835;28;20046;-80
2023/01/27 11:30:11;;;;;;;29.40;10.77;;;;;;;;;;5003266;28;20085;-81
2023/01/27 11:32:47;;;;;;;31.92;11.00;;;;;;;;;;5006206;28;20117;-80
2023/01/27 11:35:15;;;;;;;30.52;11.52;;;;;;;;;;5005892;28;20043;-80
2023/01/27 11:37:43;;;;;;;30.80;10.80;;;;;;;;;;5004469;28;20046;-81
2023/01/27 11:40:21;;;;;;;28.50;10.52;;;;;;;;;;5004196;28;20074;-80
2023/01/27 11:42:48;;;;;;;33.88;11.45;;;;;;;;;;4999205;28;20053;-80
2023/01/27 11:45:17;;;;;;;30.13;11.63;;;;;;;;;;4997894;28;20129;-80
2023/01/27 11:47:45;;;;;;;32.95;10.80;;;;;;;;;;4998442;28;20125;-80
2023/01/27 11:50:15;;;;;;;26.98;9.68;;;;;;;;;;4980780;28;20042;-80
2023/01/27 11:52:43;;;;;;;27.40;9.68;;;;;;;;;;4982717;28;20049;-79
2023/01/27 11:55:17;;;;;;;28.50;10.98;;;;;;;;;;4999237;28;20113;-80
2023/01/27 11:57:51;;;;;;;24.45;10.38;;;;;;;;;;4999563;28;20489;-80
2023/01/27 12:00:23;;;;;;;27.55;10.43;;;;;;;;;;4997830;28;20050;-80
2023/01/27 12:03:01;;;;;;;27.77;11.10;;;;;;;;;;4999351;28;20076;-80
2023/01/27 12:05:31;;;;;;;33.17;11.93;;;;;;;;;;4999943;28;20146;-81
2023/01/27 12:07:59;;;;;;;27.10;11.80;;;;;;;;;;5000454;28;20050;-81
2023/01/27 12:10:30;;;;;;;31.10;10.80;;;;;;;;;;5000557;28;20043;-80
2023/01/27 12:13:00;;;;;;;26.67;10.38;;;;;;;;;;5009387;28;20105;-79
2023/01/27 12:15:29;;;;;;;29.02;10.40;;;;;;;;;;5005809;28;20130;-80
2023/01/27 12:17:59;;;;;;;31.77;10.48;;;;;;;;;;5002419;28;20101;-81
2023/01/27 12:20:33;;;;;;;31.70;12.40;;;;;;;;;;4998060;28;20046;-80
2023/01/27 12:23:04;;;;;;;29.92;11.05;;;;;;;;;;4999506;28;20042;-81
2023/01/27 12:25:33;;;;;;;;;;;;;;;;;;4982248;28;20141;-81
2023/01/27 12:28:03;;;;;;;26.65;9.68;;;;;;;;;;4993417;28;20396;-80
2023/01/27 12:30:33;;;;;;;28.83;11.63;;;;;;;;;;4997840;28;20062;-81
2023/01/27 12:33:10;;;;;;;28.25;11.60;;;;;;;;;;4996001;28;20073;-82
2023/01/27 12:35:37;;;;;;;33.33;11.45;;;;;;;;;;5000376;28;20050;-81
2023/01/27 12:38:12;;;;;;;31.60;10.65;;;;;;;;;;4997224;28;20089;-80
2023/01/27 12:40:42;;;;;;;31.73;11.48;;;;;;;;;;4998195;28;20050;-80
2023/01/27 12:43:15;;;;;;;31.85;11.02;;;;;;;;;;4995993;28;20125;-81
2023/01/27 12:45:43;;;;;;;34.42;11.07;;;;;;;;;;4996805;28;20129;-81
2023/01/27 12:48:19;;;;;;;29.10;10.73;;;;;;;;;;4997571;28;20046;-80
2023/01/27 12:51:03;;;;;;;28.17;10.93;;;;;;;;;;4999059;28;20096;-81
2023/01/27 12:53:30;;;;;;;31.10;10.27;;;;;;;;;;4997122;28;20230;-81
2023/01/27 12:55:59;;;;;;;32.03;11.55;;;;;;;;;;4985774;28;20574;-81
2023/01/27 12:58:34;;;;;;;28.90;11.32;;;;;;;;;;4978446;28;20042;-81
2023/01/27 13:01:03;;;;;;;28.00;10.43;;;;;;;;;;4993764;28;20082;-80
2023/01/27 13:03:30;;;;;;;29.58;10.65;;;;;;;;;;4994107;28;20061;-79
2023/01/27 13:05:59;;;;;;;31.58;12.55;;;;;;;;;;4997548;28;20041;-80
2023/01/27 13:08:27;;;;;;;30.67;11.05;;;;;;;;;;5015178;28;20046;-80
2023/01/27 13:10:57;;;;;;;28.40;11.90;;;;;;;;;;5011836;28;20430;-80
2023/01/27 13:13:25;;;;;;;29.70;10.27;;;;;;;;;;4999468;28;20498;-80
2023/01/27 13:15:58;;;;;;;30.45;11.27;;;;;;;;;;4996049;28;20430;-80
2023/01/27 13:18:25;;;;;;;33.95;12.45;;;;;;;;;;4995896;28;20056;-82
2023/01/27 13:20:57;;;;;;;30.73;11.18;;;;;;;;;;4995383;28;20082;-81
2023/01/27 13:23:26;;;;;;;28.35;10.30;;;;;;;;;;4995511;28;20085;-80
2023/01/27 13:25:58;;;;;;;28.80;11.68;;;;;;;;;;4996007;28;20125;-85
2023/01/27 13:28:31;;;;;;;27.20;9.18;;;;;;;;;;4996136;28;20081;-84
2023/01/27 13:31:05;;;;;;;28.33;11.52;;;;;;;;;;4997113;28;20561;-80
2023/01/27 13:33:39;;;;;;;26.67;9.82;;;;;;;;;;4995645;28;20045;-79
2023/01/27 13:36:11;;;;;;;28.20;10.93;;;;;;;;;;4995599;28;20054;-80
2023/01/27 13:38:47;;;;;;;31.15;10.27;;;;;;;;;;4997324;28;20367;-80
2023/01/27 13:41:20;;;;;;;29.85;12.48;;;;;;;;;;4996608;28;20049;-79
2023/01/27 13:43:55;;;;;;;29.35;10.07;;;;;;;;;;4990320;28;20054;-80
2023/01/27 13:46:27;;;;;;;30.60;10.75;;;;;;;;;;4999647;28;20042;-80
2023/01/27 13:48:55;;;;;;;29.20;10.32;;;;;;;;;;4992339;28;20081;-80
2023/01/27 13:51:25;;;;;;;30.10;10.48;;;;;;;;;;4999004;28;20047;-80
2023/01/27 13:53:57;;;;;;;30.70;11.43;;;;;;;;;;4999183;28;20347;-80
2023/01/27 13:56:31;;;;;;;28.23;9.57;;;;;;;;;;4999089;28;20162;-80
2023/01/27 13:59:08;;;;;;;28.55;10.02;;;;;;;;;;4980628;28;20086;-80
2023/01/27 14:01:47;;;;;;;28.20;10.75;;;;;;;;;;4986739;28;20093;-79
2023/01/27 14:04:33;;;;;;;28.90;9.43;;;;;;;;;;4989540;28;20442;-80
2023/01/27 14:07:14;;;;;;;31.90;10.95;;;;;;;;;;4998242;28;20106;-81
2023/01/27 14:09:56;;;;;;;32.10;10.98;;;;;;;;;;4997710;28;20074;-80
2023/01/27 14:12:39;;;;;;;33.72;11.23;;;;;;;;;;5000586;28;20050;-80
2023/01/27 14:15:21;;;;;;;26.55;9.93;;;;;;;;;;4999776;28;20054;-80
2023/01/27 14:17:57;;;;;;;31.50;10.73;;;;;;;;;;4999424;28;20050;-80
2023/01/27 14:20:42;;;;;;;33.33;11.63;;;;;;;;;;5000542;28;20110;-80
2023/01/27 14:23:23;;;;;;;37.22;11.68;;;;;;;;;;5001071;28;20338;-81
2023/01/27 14:25:59;;;;;;;32.42;10.13;;;;;;;;;;4998883;28;20046;-80
2023/01/27 14:28:33;;;;;;;33.90;12.02;;;;;;;;;;4998207;28;20142;-80
2023/01/27 14:31:06;;;;;;;26.92;9.45;;;;;;;;;;4998339;28;20088;-80
2023/01/27 14:33:49;;;;;;;26.48;11.02;;;;;;;;;;4997960;28;20046;-80
2023/01/27 14:36:20;;;;;;;31.38;10.93;;;;;;;;;;4998949;28;20132;-80
2023/01/27 14:38:58;;;;;;;31.05;10.50;;;;;;;;;;4997849;28;20065;-81
2023/01/27 14:41:32;;;;;;;28.85;9.77;;;;;;;;;;4997846;28;20038;-81
2023/01/27 14:44:05;;;;;;;31.55;11.38;;;;;;;;;;4998304;28;20478;-80
2023/01/27 14:46:52;;;;;;;33.13;11.82;;;;;;;;;;4999338;28;20129;-81
2023/01/27 14:49:31;;;;;;;29.77;10.52;;;;;;;;;;4996599;28;20084;-81
2023/01/27 14:52:04;;;;;;;35.22;11.65;;;;;;;;;;4997363;28;20696;-80
2023/01/27 14:54:53;;;;;;;29.40;10.98;;;;;;;;;;4997857;28;20050;-80
2023/01/27 14:57:31;;;;;;;27.80;11.18;;;;;;;;;;4996020;28;20082;-81
2023/01/27 15:00:05;;;;;;;25.35;10.73;;;;;;;;;;4997367;28;20418;-81
2023/01/27 15:02:44;;;;;;;33.92;12.25;;;;;;;;;;5001430;28;20098;-81
2023/01/27 15:05:19;;;;;;;28.92;10.60;;;;;;;;;;5009108;28;20481;-80
2023/01/27 15:07:56;;;;;;;34.05;10.57;;;;;;;;;;4995306;28;20152;-80
2023/01/27 15:10:24;;;;;;;31.02;10.82;;;;;;;;;;4996013;28;20473;-80
2023/01/27 15:13:24;;;;;;;29.70;10.55;;;;;;;;;;4997456;28;20054;-81
2023/01/27 15:16:32;;;;;;;30.50;11.43;;;;;;;;;;4997024;28;20137;-81
2023/01/27 15:19:18;;;;;;;30.88;11.90;;;;;;;;;;5000681;28;20706;-80
2023/01/27 15:22:13;;;;;;;32.13;10.93;;;;;;;;;;5001739;28;20050;-80